Madras, OR

7:21 AM PDT on July 26, 2017 (GMT -0700)
Downtown Madras | | Change Station
Active Advisory: Fire Weather Watch

Elev 2262 ft 44.63 °N, 121.13 °W | Updated 4 seconds ago

Partly Cloudy
Partly Cloudy
61.9 °F
Feels Like 61.9 °F
N
0.0
Wind Variable Wind from SW
Gusts 2.0 mph

Today
High -- | Low -- °F
--% Chance of Precip.
Yesterday
High -- | Low -- °F
Precip. -- in
Pressure 30.01 in
Visibility 10.0 miles
Clouds Scattered Clouds 9000 ft
Mostly Cloudy 11000 ft
Dew Point 50 °F
Humidity 64%
Rainfall 0.00 in
Snow Depth Not available.
5:44 AM 8:36 PM
Waxing Crescent, 13% visible
METAR KRDM 261356Z 15003KT 10SM SCT090 BKN110 17/09 A3010 RMK AO2 SLP162 T01720094
Pressure 30.01 in
Visibility 10.0 miles
Clouds Scattered Clouds 9000 ft
Mostly Cloudy 11000 ft
Dew Point 50 °F
Humidity 64%
Rainfall 0.00 in
Snow Depth Not available.
5:44 AM 8:36 PM
Waxing Crescent, 13% visible
METAR KRDM 261356Z 15003KT 10SM SCT090 BKN110 17/09 A3010 RMK AO2 SLP162 T01720094

Get Your Daily Forecast Email!

Thanks for signing up!

Be on the lookout for a verification email in your inbox.

You'll start receiving severe weather alerts in your inbox..

×

10-Day Weather Forecast

Almanac

Astronomy

Jul. 26, 2017 Rise Set
Actual Time
Civil Twilight
Nautical Twilight
Astronomical Twilight
Moon
Length of Visible Light
Length of Day
Tomorrow will be .
, % of the Moon is Illuminated

Today's Extremes

State Highs State Lows

Community

WunderPhotos

Category 6

Welcome to Category 6. This is the collective home for Weather Underground's featured writeups by Dr. Jeff Masters (right), Bob Henson (left), Chris Burt, and other regular contributors.

Nearby

Air Quality

  Air Quality AQ Index Pollutant
Not available.

Snow Depth

Station Depth Elevation

Earthquake Activity

City Distance Mag. Time & Date
Minimum magnitude displayed is 2.5.

Coastal Water Temperatures

Place Temperature

Stations

Nearby Weather Stations

Station Location Temp. Windchill Dew Point Humidity Wind Precip. Elev Updated Type
                   

Watches & Warnings

Fire Weather Watch
Issued: 2:50 AM PDT Jul. 26, 2017 – National Weather Service

... Fire Weather Watch remains in effect from 1 PM PDT this
afternoon through late tonight for abundant lightning and gusty
outflow winds for fire weather zones 610, 611, 640, 642, 643,
644, and 645...

* affected area... in Oregon... fire weather zones 610, 611, 640,
642, 643, 644, and 645.


* Timing... scattered thunderstorms will develop this afternoon and
continue through tonight.

* Lightning activity... 3 meaning thunderstorms are few with
light to moderate rain.

* Precipitation... one quarter to one half inch of rain.

* Impacts... any fires that develop will likely spread rapidly.
Outdoor burning is not recommended.

Precautionary/preparedness actions...

A Fire Weather Watch means that critical fire weather conditions
are forecast to occur. Listen for later forecasts and possible
red flag warnings.